sensor_id;sensor_type;location;lat;lon;timestamp;P1;durP1;ratioP1;P2;durP2;ratioP2
5519;SDS011;2782;52.362;10.012;2022-08-20T00:06:13;2.27;;;1.90;;
5519;SDS011;2782;52.362;10.012;2022-08-20T00:12:57;1.80;;;1.50;;
5519;SDS011;2782;52.362;10.012;2022-08-20T00:19:40;4.83;;;2.07;;
5519;SDS011;2782;52.362;10.012;2022-08-20T00:26:22;3.30;;;1.70;;
5519;SDS011;2782;52.362;10.012;2022-08-20T00:33:05;4.53;;;1.40;;
5519;SDS011;2782;52.362;10.012;2022-08-20T00:39:50;4.03;;;1.80;;
5519;SDS011;2782;52.362;10.012;2022-08-20T00:46:32;1.90;;;1.70;;
5519;SDS011;2782;52.362;10.012;2022-08-20T00:53:14;2.30;;;1.67;;
5519;SDS011;2782;52.362;10.012;2022-08-20T00:59:58;2.23;;;2.03;;
5519;SDS011;2782;52.362;10.012;2022-08-20T01:06:42;2.30;;;1.67;;
5519;SDS011;2782;52.362;10.012;2022-08-20T01:13:25;2.20;;;1.40;;
5519;SDS011;2782;52.362;10.012;2022-08-20T01:20:09;2.60;;;1.60;;
5519;SDS011;2782;52.362;10.012;2022-08-20T01:26:54;2.10;;;1.73;;
5519;SDS011;2782;52.362;10.012;2022-08-20T01:33:36;1.83;;;1.73;;
5519;SDS011;2782;52.362;10.012;2022-08-20T01:40:26;3.60;;;1.80;;
5519;SDS011;2782;52.362;10.012;2022-08-20T01:47:21;1.70;;;1.60;;
5519;SDS011;2782;52.362;10.012;2022-08-20T01:54:04;1.80;;;1.70;;
5519;SDS011;2782;52.362;10.012;2022-08-20T02:00:46;2.20;;;2.00;;
5519;SDS011;2782;52.362;10.012;2022-08-20T02:07:29;1.63;;;1.53;;
5519;SDS011;2782;52.362;10.012;2022-08-20T02:14:11;3.40;;;1.90;;
5519;SDS011;2782;52.362;10.012;2022-08-20T02:20:53;2.07;;;1.70;;
5519;SDS011;2782;52.362;10.012;2022-08-20T02:27:36;2.20;;;2.00;;
5519;SDS011;2782;52.362;10.012;2022-08-20T02:34:20;2.30;;;1.80;;
5519;SDS011;2782;52.362;10.012;2022-08-20T02:41:01;6.27;;;2.17;;
5519;SDS011;2782;52.362;10.012;2022-08-20T02:47:44;2.97;;;2.00;;
5519;SDS011;2782;52.362;10.012;2022-08-20T02:54:26;2.20;;;2.10;;
5519;SDS011;2782;52.362;10.012;2022-08-20T03:01:09;2.97;;;2.00;;
5519;SDS011;2782;52.362;10.012;2022-08-20T03:07:55;12.80;;;2.13;;
5519;SDS011;2782;52.362;10.012;2022-08-20T03:14:37;3.17;;;2.07;;
5519;SDS011;2782;52.362;10.012;2022-08-20T03:21:18;2.03;;;1.77;;
5519;SDS011;2782;52.362;10.012;2022-08-20T03:28:02;4.87;;;2.20;;
5519;SDS011;2782;52.362;10.012;2022-08-20T03:34:46;2.00;;;1.90;;
5519;SDS011;2782;52.362;10.012;2022-08-20T03:41:28;5.03;;;2.07;;
5519;SDS011;2782;52.362;10.012;2022-08-20T03:48:16;3.07;;;1.97;;
5519;SDS011;2782;52.362;10.012;2022-08-20T03:54:59;2.77;;;1.90;;
5519;SDS011;2782;52.362;10.012;2022-08-20T04:01:40;4.23;;;2.70;;
5519;SDS011;2782;52.362;10.012;2022-08-20T04:08:25;8.90;;;2.57;;
5519;SDS011;2782;52.362;10.012;2022-08-20T04:15:09;2.47;;;2.27;;
5519;SDS011;2782;52.362;10.012;2022-08-20T04:21:54;2.37;;;2.17;;
5519;SDS011;2782;52.362;10.012;2022-08-20T04:28:37;2.40;;;2.20;;
5519;SDS011;2782;52.362;10.012;2022-08-20T04:35:19;3.00;;;2.47;;
5519;SDS011;2782;52.362;10.012;2022-08-20T04:42:03;4.63;;;2.70;;
5519;SDS011;2782;52.362;10.012;2022-08-20T04:48:46;2.80;;;2.60;;
5519;SDS011;2782;52.362;10.012;2022-08-20T04:55:28;3.10;;;2.90;;
5519;SDS011;2782;52.362;10.012;2022-08-20T05:02:10;3.80;;;3.00;;
5519;SDS011;2782;52.362;10.012;2022-08-20T05:08:54;4.00;;;3.33;;
5519;SDS011;2782;52.362;10.012;2022-08-20T05:15:38;9.50;;;3.40;;
5519;SDS011;2782;52.362;10.012;2022-08-20T05:22:20;7.00;;;4.57;;
5519;SDS011;2782;52.362;10.012;2022-08-20T05:29:03;4.50;;;4.10;;
5519;SDS011;2782;52.362;10.012;2022-08-20T05:35:46;4.60;;;3.23;;
5519;SDS011;2782;52.362;10.012;2022-08-20T05:42:30;7.93;;;5.07;;
5519;SDS011;2782;52.362;10.012;2022-08-20T05:49:13;4.33;;;3.93;;
5519;SDS011;2782;52.362;10.012;2022-08-20T05:55:57;7.20;;;3.87;;
5519;SDS011;2782;52.362;10.012;2022-08-20T06:02:40;20.67;;;4.60;;
5519;SDS011;2782;52.362;10.012;2022-08-20T06:09:41;13.17;;;5.50;;
5519;SDS011;2782;52.362;10.012;2022-08-20T06:16:22;19.83;;;7.80;;
5519;SDS011;2782;52.362;10.012;2022-08-20T06:23:04;16.93;;;9.23;;
5519;SDS011;2782;52.362;10.012;2022-08-20T06:29:47;14.13;;;9.03;;
5519;SDS011;2782;52.362;10.012;2022-08-20T06:36:29;9.53;;;8.53;;
5519;SDS011;2782;52.362;10.012;2022-08-20T06:43:11;8.63;;;6.80;;
5519;SDS011;2782;52.362;10.012;2022-08-20T06:49:54;9.53;;;7.00;;
5519;SDS011;2782;52.362;10.012;2022-08-20T06:56:36;8.80;;;6.10;;
5519;SDS011;2782;52.362;10.012;2022-08-20T07:03:18;10.07;;;5.90;;
5519;SDS011;2782;52.362;10.012;2022-08-20T07:10:01;9.73;;;6.20;;
5519;SDS011;2782;52.362;10.012;2022-08-20T07:16:45;7.33;;;5.40;;
5519;SDS011;2782;52.362;10.012;2022-08-20T07:23:28;5.83;;;5.23;;
5519;SDS011;2782;52.362;10.012;2022-08-20T07:30:12;5.43;;;4.90;;
5519;SDS011;2782;52.362;10.012;2022-08-20T07:37:14;11.43;;;6.27;;
5519;SDS011;2782;52.362;10.012;2022-08-20T07:43:55;6.80;;;5.40;;
5519;SDS011;2782;52.362;10.012;2022-08-20T07:50:38;13.87;;;5.70;;
5519;SDS011;2782;52.362;10.012;2022-08-20T07:57:21;10.73;;;7.33;;
5519;SDS011;2782;52.362;10.012;2022-08-20T08:04:03;9.33;;;7.97;;
5519;SDS011;2782;52.362;10.012;2022-08-20T08:10:46;10.20;;;8.27;;
5519;SDS011;2782;52.362;10.012;2022-08-20T08:17:30;10.00;;;7.57;;
5519;SDS011;2782;52.362;10.012;2022-08-20T08:24:12;8.20;;;6.70;;
5519;SDS011;2782;52.362;10.012;2022-08-20T08:30:58;9.37;;;6.70;;
5519;SDS011;2782;52.362;10.012;2022-08-20T08:37:39;6.07;;;5.47;;
5519;SDS011;2782;52.362;10.012;2022-08-20T08:44:22;12.27;;;7.17;;
5519;SDS011;2782;52.362;10.012;2022-08-20T08:51:08;7.60;;;6.80;;
5519;SDS011;2782;52.362;10.012;2022-08-20T08:57:52;10.00;;;5.97;;
5519;SDS011;2782;52.362;10.012;2022-08-20T09:04:36;8.70;;;5.83;;
5519;SDS011;2782;52.362;10.012;2022-08-20T09:11:21;8.10;;;6.37;;
5519;SDS011;2782;52.362;10.012;2022-08-20T09:18:04;6.30;;;5.70;;
5519;SDS011;2782;52.362;10.012;2022-08-20T09:24:46;9.90;;;5.40;;
5519;SDS011;2782;52.362;10.012;2022-08-20T09:31:29;9.20;;;8.30;;
5519;SDS011;2782;52.362;10.012;2022-08-20T09:38:10;7.10;;;6.40;;
5519;SDS011;2782;52.362;10.012;2022-08-20T09:44:52;9.93;;;6.73;;
5519;SDS011;2782;52.362;10.012;2022-08-20T09:51:35;5.53;;;5.03;;
5519;SDS011;2782;52.362;10.012;2022-08-20T09:58:18;6.63;;;5.90;;
5519;SDS011;2782;52.362;10.012;2022-08-20T10:05:02;6.50;;;5.87;;
5519;SDS011;2782;52.362;10.012;2022-08-20T10:11:46;5.47;;;4.73;;
5519;SDS011;2782;52.362;10.012;2022-08-20T10:18:28;9.40;;;7.07;;
5519;SDS011;2782;52.362;10.012;2022-08-20T10:25:09;6.80;;;5.60;;
5519;SDS011;2782;52.362;10.012;2022-08-20T10:31:53;9.57;;;6.37;;
5519;SDS011;2782;52.362;10.012;2022-08-20T10:38:36;8.10;;;6.77;;
5519;SDS011;2782;52.362;10.012;2022-08-20T10:45:18;6.60;;;5.90;;
5519;SDS011;2782;52.362;10.012;2022-08-20T10:52:01;5.80;;;5.20;;
5519;SDS011;2782;52.362;10.012;2022-08-20T10:58:43;7.53;;;5.77;;
5519;SDS011;2782;52.362;10.012;2022-08-20T11:05:24;8.63;;;6.10;;
5519;SDS011;2782;52.362;10.012;2022-08-20T11:12:07;11.13;;;6.30;;
5519;SDS011;2782;52.362;10.012;2022-08-20T11:18:49;7.07;;;5.87;;
5519;SDS011;2782;52.362;10.012;2022-08-20T11:25:31;6.87;;;4.80;;
5519;SDS011;2782;52.362;10.012;2022-08-20T11:32:14;6.03;;;4.70;;
5519;SDS011;2782;52.362;10.012;2022-08-20T11:38:56;10.20;;;5.33;;
5519;SDS011;2782;52.362;10.012;2022-08-20T11:45:37;26.00;;;9.27;;
5519;SDS011;2782;52.362;10.012;2022-08-20T11:52:20;11.60;;;10.40;;
5519;SDS011;2782;52.362;10.012;2022-08-20T11:59:02;11.50;;;9.53;;
5519;SDS011;2782;52.362;10.012;2022-08-20T12:05:44;9.27;;;8.30;;
5519;SDS011;2782;52.362;10.012;2022-08-20T12:12:28;9.67;;;6.67;;
5519;SDS011;2782;52.362;10.012;2022-08-20T12:19:09;5.23;;;4.83;;
5519;SDS011;2782;52.362;10.012;2022-08-20T12:25:51;4.63;;;3.67;;
5519;SDS011;2782;52.362;10.012;2022-08-20T12:32:34;3.53;;;2.70;;
5519;SDS011;2782;52.362;10.012;2022-08-20T12:39:16;3.90;;;1.27;;
5519;SDS011;2782;52.362;10.012;2022-08-20T12:45:57;1.80;;;1.50;;
5519;SDS011;2782;52.362;10.012;2022-08-20T12:52:40;13.40;;;1.63;;
5519;SDS011;2782;52.362;10.012;2022-08-20T12:59:23;7.30;;;1.37;;
5519;SDS011;2782;52.362;10.012;2022-08-20T13:06:05;4.33;;;0.90;;
5519;SDS011;2782;52.362;10.012;2022-08-20T13:12:48;1.93;;;0.60;;
5519;SDS011;2782;52.362;10.012;2022-08-20T13:19:30;7.83;;;0.77;;
5519;SDS011;2782;52.362;10.012;2022-08-20T13:26:14;6.93;;;2.03;;
5519;SDS011;2782;52.362;10.012;2022-08-20T13:32:57;6.53;;;1.37;;
5519;SDS011;2782;52.362;10.012;2022-08-20T13:39:39;4.93;;;1.87;;
5519;SDS011;2782;52.362;10.012;2022-08-20T13:46:21;1.97;;;1.80;;
5519;SDS011;2782;52.362;10.012;2022-08-20T13:53:04;2.57;;;1.60;;
5519;SDS011;2782;52.362;10.012;2022-08-20T13:59:47;5.07;;;2.53;;
5519;SDS011;2782;52.362;10.012;2022-08-20T14:06:29;2.77;;;2.20;;
5519;SDS011;2782;52.362;10.012;2022-08-20T14:13:12;2.20;;;2.10;;
5519;SDS011;2782;52.362;10.012;2022-08-20T14:19:55;1.90;;;1.80;;
5519;SDS011;2782;52.362;10.012;2022-08-20T14:26:38;2.23;;;1.50;;
5519;SDS011;2782;52.362;10.012;2022-08-20T14:33:22;4.93;;;1.47;;
5519;SDS011;2782;52.362;10.012;2022-08-20T14:40:05;1.70;;;1.60;;
5519;SDS011;2782;52.362;10.012;2022-08-20T14:46:48;2.97;;;1.73;;
5519;SDS011;2782;52.362;10.012;2022-08-20T14:53:31;4.30;;;1.50;;
5519;SDS011;2782;52.362;10.012;2022-08-20T15:00:14;2.10;;;1.53;;
5519;SDS011;2782;52.362;10.012;2022-08-20T15:06:58;2.00;;;1.60;;
5519;SDS011;2782;52.362;10.012;2022-08-20T15:13:41;1.57;;;1.47;;
5519;SDS011;2782;52.362;10.012;2022-08-20T15:20:24;4.63;;;1.67;;
5519;SDS011;2782;52.362;10.012;2022-08-20T15:27:10;3.53;;;1.20;;
5519;SDS011;2782;52.362;10.012;2022-08-20T15:33:55;3.40;;;2.17;;
5519;SDS011;2782;52.362;10.012;2022-08-20T15:40:36;2.40;;;1.43;;
5519;SDS011;2782;52.362;10.012;2022-08-20T15:47:19;4.60;;;1.93;;
5519;SDS011;2782;52.362;10.012;2022-08-20T15:54:06;2.13;;;1.50;;
5519;SDS011;2782;52.362;10.012;2022-08-20T16:00:55;2.07;;;1.53;;
5519;SDS011;2782;52.362;10.012;2022-08-20T16:07:46;3.43;;;1.20;;
5519;SDS011;2782;52.362;10.012;2022-08-20T16:14:36;4.07;;;1.23;;
5519;SDS011;2782;52.362;10.012;2022-08-20T16:21:24;1.47;;;1.37;;
5519;SDS011;2782;52.362;10.012;2022-08-20T16:28:09;5.60;;;2.17;;
5519;SDS011;2782;52.362;10.012;2022-08-20T16:35:05;2.17;;;1.40;;
5519;SDS011;2782;52.362;10.012;2022-08-20T16:41:56;4.70;;;1.40;;
5519;SDS011;2782;52.362;10.012;2022-08-20T16:48:39;2.80;;;1.90;;
5519;SDS011;2782;52.362;10.012;2022-08-20T16:55:26;4.13;;;2.00;;
5519;SDS011;2782;52.362;10.012;2022-08-20T17:02:08;5.57;;;1.90;;
5519;SDS011;2782;52.362;10.012;2022-08-20T17:08:51;1.57;;;1.43;;
5519;SDS011;2782;52.362;10.012;2022-08-20T17:15:34;1.70;;;1.57;;
5519;SDS011;2782;52.362;10.012;2022-08-20T17:22:16;3.27;;;1.87;;
5519;SDS011;2782;52.362;10.012;2022-08-20T17:28:59;3.17;;;1.70;;
5519;SDS011;2782;52.362;10.012;2022-08-20T17:35:49;2.17;;;1.57;;
5519;SDS011;2782;52.362;10.012;2022-08-20T17:42:33;2.30;;;1.40;;
5519;SDS011;2782;52.362;10.012;2022-08-20T17:49:29;2.27;;;1.40;;
5519;SDS011;2782;52.362;10.012;2022-08-20T17:56:18;2.50;;;1.70;;
5519;SDS011;2782;52.362;10.012;2022-08-20T18:03:05;2.87;;;1.40;;
5519;SDS011;2782;52.362;10.012;2022-08-20T18:09:55;2.20;;;1.53;;
5519;SDS011;2782;52.362;10.012;2022-08-20T18:16:43;2.03;;;1.30;;
5519;SDS011;2782;52.362;10.012;2022-08-20T18:23:33;2.23;;;0.90;;
5519;SDS011;2782;52.362;10.012;2022-08-20T18:30:20;1.57;;;1.30;;
5519;SDS011;2782;52.362;10.012;2022-08-20T18:37:06;2.57;;;1.57;;
5519;SDS011;2782;52.362;10.012;2022-08-20T18:44:02;1.80;;;1.30;;
5519;SDS011;2782;52.362;10.012;2022-08-20T18:50:47;2.10;;;1.53;;
5519;SDS011;2782;52.362;10.012;2022-08-20T18:57:37;10.07;;;6.40;;
5519;SDS011;2782;52.362;10.012;2022-08-20T19:04:31;25.40;;;14.67;;
5519;SDS011;2782;52.362;10.012;2022-08-20T19:18:36;12.80;;;7.60;;
5519;SDS011;2782;52.362;10.012;2022-08-20T19:25:25;8.30;;;4.60;;
5519;SDS011;2782;52.362;10.012;2022-08-20T19:32:14;6.77;;;4.00;;
5519;SDS011;2782;52.362;10.012;2022-08-20T19:39:00;7.10;;;3.83;;
5519;SDS011;2782;52.362;10.012;2022-08-20T19:45:57;5.70;;;2.63;;
5519;SDS011;2782;52.362;10.012;2022-08-20T19:52:42;10.57;;;2.83;;
5519;SDS011;2782;52.362;10.012;2022-08-20T19:59:32;6.10;;;1.87;;
5519;SDS011;2782;52.362;10.012;2022-08-20T20:06:16;4.27;;;1.80;;
5519;SDS011;2782;52.362;10.012;2022-08-20T20:13:05;6.10;;;2.20;;
5519;SDS011;2782;52.362;10.012;2022-08-20T20:19:50;4.93;;;1.60;;
5519;SDS011;2782;52.362;10.012;2022-08-20T20:26:36;3.37;;;1.33;;
5519;SDS011;2782;52.362;10.012;2022-08-20T20:33:21;10.17;;;1.70;;
5519;SDS011;2782;52.362;10.012;2022-08-20T20:40:13;3.97;;;1.20;;
5519;SDS011;2782;52.362;10.012;2022-08-20T20:47:02;3.20;;;0.97;;
5519;SDS011;2782;52.362;10.012;2022-08-20T20:53:46;8.50;;;1.17;;
5519;SDS011;2782;52.362;10.012;2022-08-20T21:00:30;4.60;;;0.97;;
5519;SDS011;2782;52.362;10.012;2022-08-20T21:07:14;4.57;;;0.67;;
5519;SDS011;2782;52.362;10.012;2022-08-20T21:13:57;9.87;;;1.23;;
5519;SDS011;2782;52.362;10.012;2022-08-20T21:20:40;3.10;;;1.20;;
5519;SDS011;2782;52.362;10.012;2022-08-20T21:27:23;4.67;;;1.43;;
5519;SDS011;2782;52.362;10.012;2022-08-20T21:34:06;1.63;;;0.40;;
5519;SDS011;2782;52.362;10.012;2022-08-20T21:40:49;3.93;;;0.87;;
5519;SDS011;2782;52.362;10.012;2022-08-20T21:47:31;4.93;;;0.83;;
5519;SDS011;2782;52.362;10.012;2022-08-20T21:54:13;3.80;;;0.83;;
5519;SDS011;2782;52.362;10.012;2022-08-20T22:00:57;2.70;;;0.70;;
5519;SDS011;2782;52.362;10.012;2022-08-20T22:07:40;5.60;;;1.00;;
5519;SDS011;2782;52.362;10.012;2022-08-20T22:14:22;1.87;;;0.67;;
5519;SDS011;2782;52.362;10.012;2022-08-20T22:21:05;4.43;;;0.70;;
5519;SDS011;2782;52.362;10.012;2022-08-20T22:27:50;3.70;;;0.97;;
5519;SDS011;2782;52.362;10.012;2022-08-20T22:34:32;3.70;;;0.93;;
5519;SDS011;2782;52.362;10.012;2022-08-20T22:41:16;2.83;;;0.77;;
5519;SDS011;2782;52.362;10.012;2022-08-20T22:47:58;4.43;;;0.80;;
5519;SDS011;2782;52.362;10.012;2022-08-20T22:54:40;4.97;;;1.13;;
5519;SDS011;2782;52.362;10.012;2022-08-20T23:01:23;7.17;;;1.73;;
5519;SDS011;2782;52.362;10.012;2022-08-20T23:08:05;2.83;;;0.73;;
5519;SDS011;2782;52.362;10.012;2022-08-20T23:14:47;2.90;;;1.10;;
5519;SDS011;2782;52.362;10.012;2022-08-20T23:21:30;4.93;;;0.70;;
5519;SDS011;2782;52.362;10.012;2022-08-20T23:28:12;3.33;;;1.13;;
5519;SDS011;2782;52.362;10.012;2022-08-20T23:34:56;4.30;;;1.20;;
5519;SDS011;2782;52.362;10.012;2022-08-20T23:41:40;3.23;;;0.67;;
5519;SDS011;2782;52.362;10.012;2022-08-20T23:48:23;11.50;;;1.30;;
5519;SDS011;2782;52.362;10.012;2022-08-20T23:55:05;2.40;;;0.83;;
